PWSweather.com
Personal Weather Stations
Station Observations
MACERATA
Macerata, MacerataIT 62100

MacerataMacerataIT 62100

Lat: 43.304295, Lon: 13.437257

Elevation: 856.29663

Station Type: DAVIS VANTAGE PRO 2

Latest ConditionsUpdated 5:41:56 AM GMT+01:01 Friday, Jun 23, 2017
Currently Today's Max Today's Min Today's Average
Temperature 79.3°F26.3°C 81.5°F27.5°C 79.1°F26.2°C 80.1°F26.7°C
Dew Point 54.2°F12.3°C 58.7°F14.8°C 53.5°F11.9°C 55.9°F13.3°C
Winds 11.0 mph W17.7 kmh W 12.0 mph SW19.3 kmh SW - 9.0 mph 14.5 kmh
Wind Gusts 19.0 mph30.6 kmh 19.0 mph30.6 kmh - -
Humidity 42% 46% 41% 44%
Pressure 29.97 in1014.9 mb 30.00 in1015.9 mb 29.96 in1014.6 mb -
Hour Temp Dew Point Humidity Winds Wind Gusts Pressure Precip Precip Rate Daily Precip Total
05:41 AM 79.3°F26.3°C 54.2°F12.3°C 42% 11.0 mph W17.7 kmh W 19.0 mph30.6 kmh 29.97 in1014.9 mb 0.00 in0.0 mm 0.00 in0.0 mm 0.00 in0.0 mm
05:18 AM 79.1°F26.2°C 54.1°F12.3°C 42% 12.0 mph SW19.3 kmh SW 18.0 mph29.0 kmh 29.97 in1014.9 mb 0.00 in0.0 mm 0.00 in0.0 mm 0.00 in0.0 mm
05:11 AM 79.2°F26.2°C 53.5°F11.9°C 41% 9.0 mph W14.5 kmh W 17.0 mph27.4 kmh 29.96 in1014.6 mb 0.00 in0.0 mm 0.00 in0.0 mm 0.00 in0.0 mm
04:33 AM 79.5°F26.4°C 53.8°F12.1°C 41% 9.0 mph SW14.5 kmh SW 17.0 mph27.4 kmh 29.96 in1014.6 mb 0.00 in0.0 mm 0.00 in0.0 mm 0.00 in0.0 mm
04:26 AM 79.6°F26.4°C 53.9°F12.2°C 41% 10.0 mph SW16.1 kmh SW 13.0 mph20.9 kmh 29.96 in1014.6 mb 0.00 in0.0 mm 0.00 in0.0 mm 0.00 in0.0 mm
04:02 AM 79.6°F26.4°C 54.5°F12.5°C 42% 12.0 mph SW19.3 kmh SW 16.0 mph25.7 kmh 29.96 in1014.6 mb 0.00 in0.0 mm 0.00 in0.0 mm 0.00 in0.0 mm
03:47 AM 79.7°F26.5°C 54.6°F12.6°C 42% 11.0 mph SSW17.7 kmh SSW 13.0 mph20.9 kmh 29.96 in1014.6 mb 0.00 in0.0 mm 0.00 in0.0 mm 0.00 in0.0 mm
03:18 AM 79.7°F26.5°C 54.6°F12.6°C 42% 7.0 mph SSW11.3 kmh SSW 15.0 mph24.1 kmh 29.97 in1014.9 mb 0.00 in0.0 mm 0.00 in0.0 mm 0.00 in0.0 mm
03:03 AM 79.6°F26.4°C 55.2°F12.9°C 43% 5.0 mph SW8.0 kmh SW 15.0 mph24.1 kmh 29.97 in1014.9 mb 0.00 in0.0 mm 0.00 in0.0 mm 0.00 in0.0 mm
02:48 AM 79.8°F26.6°C 55.3°F12.9°C 43% 10.0 mph SW16.1 kmh SW 15.0 mph24.1 kmh 29.97 in1014.9 mb 0.00 in0.0 mm 0.00 in0.0 mm 0.00 in0.0 mm
02:22 AM 80.2°F26.8°C 55.7°F13.2°C 43% 9.0 mph SW14.5 kmh SW 15.0 mph24.1 kmh 29.98 in1015.2 mb 0.00 in0.0 mm 0.00 in0.0 mm 0.00 in0.0 mm
02:03 AM 80.3°F26.8°C 56.4°F13.6°C 44% 11.0 mph SW17.7 kmh SW 12.0 mph19.3 kmh 29.99 in1015.6 mb 0.00 in0.0 mm 0.00 in0.0 mm 0.00 in0.0 mm
01:51 AM 80.2°F26.8°C 57.0°F13.9°C 45% 8.0 mph SW12.9 kmh SW 12.0 mph19.3 kmh 29.99 in1015.6 mb 0.00 in0.0 mm 0.00 in0.0 mm 0.00 in0.0 mm
01:38 AM 80.5°F26.9°C 56.6°F13.7°C 44% 12.0 mph SW19.3 kmh SW 12.0 mph19.3 kmh 29.99 in1015.6 mb 0.00 in0.0 mm 0.00 in0.0 mm 0.00 in0.0 mm
01:18 AM 80.4°F26.9°C 57.8°F14.3°C 46% 8.0 mph SW12.9 kmh SW 12.0 mph19.3 kmh 29.99 in1015.6 mb 0.00 in0.0 mm 0.00 in0.0 mm 0.00 in0.0 mm
01:03 AM 80.7°F27.1°C 58.0°F14.4°C 46% 11.0 mph SW17.7 kmh SW 12.0 mph19.3 kmh 29.99 in1015.6 mb 0.00 in0.0 mm 0.00 in0.0 mm 0.00 in0.0 mm
12:47 AM 80.7°F27.1°C 58.0°F14.4°C 46% 7.0 mph SW11.3 kmh SW 11.0 mph17.7 kmh 29.99 in1015.6 mb 0.00 in0.0 mm 0.00 in0.0 mm 0.00 in0.0 mm
12:36 AM 80.9°F27.2°C 58.2°F14.6°C 46% 6.0 mph SW9.7 kmh SW 11.0 mph17.7 kmh 29.99 in1015.6 mb 0.00 in0.0 mm 0.00 in0.0 mm 0.00 in0.0 mm
12:17 AM 81.4°F27.4°C 58.7°F14.8°C 46% 7.0 mph SW11.3 kmh SW 13.0 mph20.9 kmh 30.00 in1015.9 mb 0.00 in0.0 mm 0.00 in0.0 mm 0.00 in0.0 mm
12:07 AM 81.5°F27.5°C 58.1°F14.5°C 45% 5.0 mph SW8.0 kmh SW 13.0 mph20.9 kmh 29.99 in1015.6 mb 0.00 in0.0 mm 0.00 in0.0 mm 0.00 in0.0 mm